Flight Track Log - Related Links

Times and Time Zones

All times are in EDT time to prevent confusion due to time zone crossing. See the N137TK flight status page for this flight to view local times or setup timezone preferences in your user account.

Time Position Orientation Groundspeed Altitude Reporting Facility
EDT Latitude Longitude Course Direction KTS MPH feet Rate Location/Type
Wed 10:07:13 AM 26.2311 -81.7292 264° West 178 205 3,700  Level Miami Center
Wed 10:08:13 AM 26.2531 -81.7603 308° West 151 174 5,700 1,950 Climbing Miami Center
Wed 10:09:13 AM 26.2533 -81.8111 270° West 151 174 7,600 1,850 Climbing Miami Center
Wed 10:10:13 AM 26.2578 -81.8669 275° West 171 197 9,400 1,800 Climbing Miami Center
Wed 10:11:00 AM 26.3161 -82.0923 303° West  Level Estimated
Wed 10:11:13 AM 26.2683 -81.9183 283° West 177 204 11,200  Level Miami Center
Wed 10:12:00 AM 26.3095 -82.1650 264° West  Level FlightAware Approximate
Wed 10:12:13 AM 26.2875 -81.9725 292° West 177 204 12,600  Level Miami Center
Wed 10:13:13 AM 26.3106 -82.0244 296° West 188 216 13,800 1,300 Climbing Miami Center
Wed 10:14:13 AM 26.3339 -82.0764 297° West 193 222 15,200 1,300 Climbing Miami Center
Wed 10:15:13 AM 26.3550 -82.1306 294° West 193 222 16,400 1,150 Climbing Miami Center
Wed 10:16:13 AM 26.3758 -82.1847 293° West 193 222 17,500 1,150 Climbing Miami Center
Wed 10:17:13 AM 26.4028 -82.2439 297° West 193 222 18,700 1,100 Climbing Miami Center
Wed 10:18:13 AM 26.4239 -82.2983 293° West 193 222 19,700 1,050 Climbing Miami Center
Wed 10:19:13 AM 26.4467 -82.3550 294° West 198 228 20,800 1,100 Climbing Miami Center
Wed 10:20:13 AM 26.4697 -82.4069 296° West 193 222 21,900 1,000 Climbing Miami Center
Wed 10:21:13 AM 26.4908 -82.4567 295° West 187 215 22,800 950 Climbing Miami Center
Wed 10:22:13 AM 26.5119 -82.5089 294° West 187 215 23,800 900 Climbing Miami Center
Wed 10:23:13 AM 26.5347 -82.5633 295° West 187 215 24,600 800 Climbing Miami Center
Wed 10:24:13 AM 26.5536 -82.6153 292° West 187 215 25,400 700 Climbing Miami Center
Wed 10:25:13 AM 26.5786 -82.6675 298° West 187 215 26,000 300 Climbing Miami Center
Wed 10:26:13 AM 26.6033 -82.7314 293° West 204 235 26,000  Level Miami Center
Wed 10:27:13 AM 26.6297 -82.7956 295° West 220 253 26,000  Level Miami Center
Wed 10:28:13 AM 26.6600 -82.8714 294° West 243 280 26,000  Level Miami Center
Wed 10:29:13 AM 26.6906 -82.9425 296° West 255 293 26,000  Level Miami Center
Wed 10:30:13 AM 26.7208 -83.0183 294° West 262 302 26,000  Level Miami Center
Wed 10:31:13 AM 26.7508 -83.0944 294° West 262 302 26,000  Level Miami Center
Wed 10:32:13 AM 26.7831 -83.1683 296° West 262 302 26,000  Level Miami Center
Wed 10:33:13 AM 26.8153 -83.2444 295° West 262 302 26,000  Level Miami Center
Wed 10:34:13 AM 26.8433 -83.3181 293° West 262 302 26,000  Level Miami Center
Wed 10:35:13 AM 26.8753 -83.3942 295° West 262 302 26,000  Level Miami Center
Wed 10:36:13 AM 26.9053 -83.4703 294° West 262 302 26,000  Level Miami Center
Wed 10:37:13 AM 26.9353 -83.5442 294° West 262 302 26,000  Level Miami Center
Wed 10:38:13 AM 26.9672 -83.6228 295° West 262 302 26,000  Level Miami Center
Wed 10:39:13 AM 26.9950 -83.6967 293° West 262 302 26,000  Level Miami Center
Wed 10:40:13 AM 27.0192 -83.7564 294° West 262 302 26,000  Level Miami Center
Wed 10:41:13 AM 27.0567 -83.8469 295° West 262 302 26,000  Level Miami Center
Wed 10:42:13 AM 27.0806 -83.9136 292° West 262 302 26,000  Level Miami Center
Wed 10:43:13 AM 27.1164 -83.9881 298° West 262 302 26,000  Level Miami Center
Wed 10:44:13 AM 27.1461 -84.0644 294° West 262 302 26,000  Level Miami Center
Wed 10:45:13 AM 27.1778 -84.1389 296° West 262 302 26,000  Level Miami Center
Wed 10:46:13 AM 27.2031 -84.2150 290° West 262 302 26,000  Level Miami Center
Wed 10:47:13 AM 27.2325 -84.2917 293° West 262 302 26,000  Level Miami Center
Wed 10:49:29 AM 27.3078 -84.4731 295° West 276 318 26,000  Level Jacksonville Center
Wed 10:50:29 AM 27.3361 -84.5506 292° West 276 318 26,000  Level Jacksonville Center
Wed 10:51:29 AM 27.3642 -84.6281 292° West 276 318 26,000  Level Jacksonville Center
Wed 10:52:29 AM 27.3967 -84.7036 296° West 271 312 26,000  Level Jacksonville Center
Wed 10:53:29 AM 27.4289 -84.7789 296° West 271 312 26,000  Level Jacksonville Center
Wed 10:54:29 AM 27.4569 -84.8564 292° West 271 312 26,000  Level Jacksonville Center
Wed 10:55:29 AM 27.4892 -84.9342 295° West 271 312 26,000  Level Jacksonville Center
Wed 10:56:29 AM 27.5150 -85.0097 291° West 271 312 26,000  Level Jacksonville Center
Wed 10:57:29 AM 27.5408 -85.0850 291° West 276 318 26,000  Level Jacksonville Center
Wed 10:58:29 AM 27.5731 -85.1631 295° West 269 310 26,000  Level Jacksonville Center
Wed 10:59:29 AM 27.6031 -85.2317 296° West 269 310 26,000  Level Jacksonville Center
Wed 11:00:29 AM 27.6328 -85.3094 293° West 269 310 26,000  Level Jacksonville Center
Wed 11:01:29 AM 27.6606 -85.3875 292° West 269 310 26,000  Level Jacksonville Center
Wed 11:02:29 AM 27.6903 -85.4656 293° West 269 310 26,000  Level Jacksonville Center
Wed 11:03:29 AM 27.7181 -85.5319 295° West 266 306 26,000  Level Jacksonville Center
Wed 11:04:29 AM 27.7497 -85.6147 293° West 266 306 26,000  Level Jacksonville Center
Wed 11:05:29 AM 27.7775 -85.6858 294° West 266 306 26,000  Level Jacksonville Center
Wed 11:06:29 AM 27.8089 -85.7781 291° West 268 308 26,000  Level Jacksonville Center
Wed 11:07:29 AM 27.8367 -85.8422 296° West 261 300 26,000  Level Jacksonville Center
Wed 11:08:29 AM 27.8661 -85.9206 293° West 266 306 26,000  Level Jacksonville Center
Wed 11:09:29 AM 27.8956 -85.9967 294° West 266 306 26,000  Level Jacksonville Center
Wed 11:10:29 AM 27.9228 -86.0725 292° West 266 306 26,000  Level Jacksonville Center
Wed 11:11:29 AM 27.9544 -86.1511 295° West 264 304 26,000  Level Jacksonville Center
Wed 11:12:29 AM 27.9814 -86.2317 291° West 274 315 26,000  Level Jacksonville Center
Wed 11:13:29 AM 28.0089 -86.2961 296° West 264 304 26,000  Level Jacksonville Center
Wed 11:14:29 AM 28.0400 -86.3794 293° West 264 304 26,000  Level Jacksonville Center
Wed 11:15:29 AM 28.0692 -86.4606 292° West 269 310 26,000  Level Jacksonville Center
Wed 11:16:29 AM 28.0944 -86.5272 293° West 268 308 26,000  Level Jacksonville Center
Wed 11:17:29 AM 28.1233 -86.6083 292° West 259 298 26,000  Level Jacksonville Center
Wed 11:18:29 AM 28.1525 -86.6822 294° West 264 304 26,000  Level Jacksonville Center
Wed 11:19:29 AM 28.1797 -86.7539 293° West 257 296 26,000  Level Jacksonville Center
Wed 11:20:29 AM 28.2064 -86.8303 292° West 262 302 26,000  Level Jacksonville Center
Wed 11:21:29 AM 28.2375 -86.9069 295° West 262 302 26,000  Level Jacksonville Center
Wed 11:22:29 AM 28.2644 -86.9833 292° West 256 295 26,000  Level Jacksonville Center
Wed 11:23:29 AM 28.2911 -87.0550 293° West 251 289 26,000  Level Jacksonville Center
Wed 11:24:29 AM 28.3200 -87.1342 293° West 261 300 26,000  Level Jacksonville Center
Wed 11:25:06 AM 28.3361 -87.1756 294° West 262 302 26,000  Level Houston Center
Wed 11:26:08 AM 28.3644 -87.2522 293° West 262 302 26,000  Level Houston Center
Wed 11:27:10 AM 28.3972 -87.3428 292° West 261 300 26,000  Level Houston Center
Wed 11:28:12 AM 28.4244 -87.4186 292° West 260 299 26,000  Level Houston Center
Wed 11:29:14 AM 28.4519 -87.4936 293° West 259 298 26,000  Level Houston Center
Wed 11:30:15 AM 28.4800 -87.5706 293° West 261 300 26,000  Level Houston Center
Wed 11:31:17 AM 28.5081 -87.6453 293° West 260 299 26,000  Level Houston Center
Wed 11:32:19 AM 28.5339 -87.7214 291° West 259 298 26,000  Level Houston Center
Wed 11:33:21 AM 28.5622 -87.7969 293° West 259 298 26,000  Level Houston Center
Wed 11:34:23 AM 28.5956 -87.8883 293° West 260 299 26,000  Level Houston Center
Wed 11:35:25 AM 28.6219 -87.9642 292° West 259 298 26,000  Level Houston Center
Wed 11:36:27 AM 28.6489 -88.0400 292° West 259 298 26,000  Level Houston Center
Wed 11:37:29 AM 28.6797 -88.1200 294° West 258 297 26,000  Level Houston Center
Wed 11:38:31 AM 28.7228 -88.1861 307° West 258 297 26,000  Level Houston Center
Wed 11:39:33 AM 28.7650 -88.2528 306° West 260 299 26,000  Level Houston Center
Wed 11:40:34 AM 28.8067 -88.3181 306° West 257 296 26,000  Level Houston Center
Wed 11:41:36 AM 28.8483 -88.3839 306° West 257 296 26,000 -339 Level Houston Center
Wed 11:42:38 AM 28.8906 -88.4514 306° West 258 297 25,300 -919 Descending Houston Center
Wed 11:43:40 AM 28.9469 -88.5397 306° West 281 323 24,100 -1,065 Descending Houston Center
Wed 11:44:42 AM 28.9928 -88.6153 305° West 288 331 23,100 -968 Descending Houston Center
Wed 11:45:44 AM 29.0406 -88.6897 306° West 290 334 22,100 -968 Descending Houston Center
Wed 11:46:46 AM 29.0872 -88.7644 306° West 290 334 21,100 -968 Descending Houston Center
Wed 11:47:48 AM 29.1333 -88.8392 305° West 288 331 20,100 -968 Descending Houston Center
Wed 11:48:50 AM 29.1806 -88.9128 306° West 287 330 19,100 -1,065 Descending Houston Center
Wed 11:49:52 AM 29.2369 -89.0025 306° West 289 333 17,900 -1,016 Descending Houston Center
Wed 11:50:54 AM 29.2825 -89.0778 305° West 288 331 17,000 -919 Descending Houston Center
Wed 11:51:56 AM 29.3269 -89.1528 304° West 286 329 16,000 -968 Descending Houston Center
Wed 11:52:58 AM 29.3739 -89.2261 306° West 286 329 15,000 -976 Descending Houston Center
Wed 11:53:59 AM 29.4181 -89.2994 305° West 284 327 14,000 -976 Descending Houston Center
Wed 11:55:01 AM 29.4636 -89.3725 306° West 282 325 13,000 -1,056 Descending Houston Center
Wed 11:56:04 AM 29.5169 -89.4611 305° West 281 323 11,800 -1,046 Descending Houston Center
Wed 11:56:50 AM 29.5525 -89.5178 306° West 279 321 11,100 -787 Descending Houston Center
Wed 11:57:05 AM 29.5622 -89.5344 304° West 281 323 11,000 -98 Descending Houston Center
Wed 11:57:51 AM 29.5947 -89.5875 305° West 268 308 11,000  Level Houston Center
Wed 11:58:07 AM 29.6056 -89.6031 309° West 275 316 11,000  Level Houston Center
Wed 11:58:52 AM 29.6428 -89.6453 315° West 259 298 11,000  Level Houston Center
Wed 11:59:09 AM 29.6556 -89.6556 325° Northwest 262 302 11,000  Level Houston Center
Wed 11:59:47 AM 29.6964 -89.6906 323° Northwest 257 296 11,000  Level Houston Center
Wed 12:00:11 PM 29.7119 -89.7072 317° Northwest 259 298 11,000  Level Houston Center
Wed 12:00:54 PM 29.7592 -89.7500 322° Northwest 252 290 11,000 -194 Level Houston Center
Wed 12:01:13 PM 29.7686 -89.7578 324° Northwest 257 296 10,800 -1,433 Descending Houston Center
Wed 12:02:01 PM 29.8217 -89.8047 322° Northwest 265 305 9,400 -1,548 Descending Houston Center
Wed 12:02:15 PM 29.8267 -89.8086 326° Northwest 259 298 9,200 -1,475 Descending Houston Center
Wed 12:03:02 PM 29.8797 -89.8550 323° Northwest 264 304 7,900 -1,742 Descending Houston Center
Wed 12:03:17 PM 29.8964 -89.8683 325° Northwest 261 300 7,400 -1,527 Descending Houston Center
Wed 12:03:57 PM 29.9314 -89.8958 326° Northwest 245 282 6,500 -1,452 Descending Houston Center
Wed 12:04:19 PM 29.9517 -89.9122 325° Northwest 252 290 5,900 -1,636 Descending Houston Center
Wed 12:05:03 PM 29.9956 -89.9433 328° Northwest 233 268 4,700 -1,452 Descending Houston Center
Wed 12:05:21 PM 30.0092 -89.9428 North 251 289 4,400 -984 Descending Houston Center
Wed 12:06:04 PM 30.0581 -89.9408 North 224 258 3,700 -871 Descending Houston Center
Wed 12:06:23 PM 30.0725 -89.9392 North 234 269 3,500 -984 Descending Houston Center
Wed 12:07:05 PM 30.0989 -89.9725 312° West 199 229 2,700 -1,065 Descending Houston Center
Wed 12:07:25 PM 30.1019 -89.9828 289° West 206 237 2,400 -984 Descending Houston Center
Wed 12:08:06 PM 30.1025 -90.0181 271° West 126 145 1,700 -1,065 Descending Houston Center
Wed 12:08:27 PM 30.0978 -90.0233 224° Southwest 158 182 1,300 -984 Descending Houston Center
Wed 12:09:07 PM 30.0736 -90.0314 196° South 94 108 700 -871 Descending Houston Center
Wed 12:09:29 PM 30.0625 -90.0308 178° South 122 140 400 -357 Descending Houston Center
Wed 12:10:31 PM 30.0339 -90.0319 182° South 119 137 200 -194 Descending Houston Center

Login

Don't have an account? Register now (free) for customized features, flight alerts, and more!